Time;durP1;ratioP1;P1;durP2;ratioP2;P2;SDS_P1;SDS_P2;PMS_P1;PMS_P2;Temp;Humidity;BMP_temperature;BMP_pressure;BME280_temperature;BME280_humidity;BME280_pressure;Samples;Min_cycle;Max_cycle;Signal;HPM_P1;HPM_P2
2023/03/04 00:01:59;;;;;;;64.20;31.30;;;7.50;57.80;;;;;;5024002;28;20028;-74
2023/03/04 00:04:25;;;;;;;63.95;31.63;;;7.50;58.00;;;;;;5044414;28;20028;-74
2023/03/04 00:06:51;;;;;;;61.20;29.67;;;7.50;58.20;;;;;;5043045;28;20018;-74
2023/03/04 00:09:18;;;;;;;56.75;27.27;;;7.50;58.30;;;;;;5042729;28;20155;-74
2023/03/04 00:11:43;;;;;;;53.65;27.58;;;7.40;58.20;;;;;;5044173;28;20025;-74
2023/03/04 00:14:09;;;;;;;51.22;26.60;;;7.50;58.40;;;;;;5041082;28;20096;-74
2023/03/04 00:16:35;;;;;;;64.88;30.92;;;7.40;58.30;;;;;;5041967;28;20021;-74
2023/03/04 00:19:01;;;;;;;67.47;30.98;;;7.40;58.50;;;;;;5042083;28;20036;-74
2023/03/04 00:21:30;;;;;;;56.63;29.77;;;7.40;58.50;;;;;;5039697;28;20013;-74
2023/03/04 00:23:56;;;;;;;67.35;33.03;;;7.30;58.40;;;;;;5044743;28;20017;-74
2023/03/04 00:26:22;;;;;;;61.33;31.38;;;7.30;58.50;;;;;;5030555;28;20053;-74
2023/03/04 00:28:48;;;;;;;59.05;29.95;;;7.30;58.60;;;;;;5024001;28;20083;-74
2023/03/04 00:31:13;;;;;;;61.95;32.53;;;7.30;58.50;;;;;;5005268;28;20385;-74
2023/03/04 00:33:39;;;;;;;61.67;32.05;;;7.20;58.70;;;;;;5016624;28;20113;-74
2023/03/04 00:36:06;;;;;;;65.72;32.45;;;7.20;58.90;;;;;;5021904;28;20022;-74
2023/03/04 00:38:31;;;;;;;60.75;29.20;;;7.20;58.90;;;;;;5023296;28;20057;-74
2023/03/04 00:40:57;;;;;;;54.20;28.80;;;7.10;58.80;;;;;;5005715;28;20431;-74
2023/03/04 00:43:23;;;;;;;61.45;30.80;;;7.10;58.90;;;;;;5021495;28;20021;-75
2023/03/04 00:45:49;;;;;;;60.45;30.83;;;7.10;59.10;;;;;;5022132;28;20529;-74
2023/03/04 00:48:15;;;;;;;62.00;31.50;;;7.10;59.20;;;;;;5022691;28;20036;-74
2023/03/04 00:50:42;;;;;;;64.07;32.90;;;7.20;59.30;;;;;;5021231;28;20026;-74
2023/03/04 00:53:08;;;;;;;66.40;32.50;;;7.10;59.40;;;;;;5019382;28;20036;-74
2023/03/04 00:55:34;;;;;;;62.17;33.15;;;7.10;59.50;;;;;;5022667;28;20022;-74
2023/03/04 00:58:00;;;;;;;67.50;33.33;;;7.10;59.40;;;;;;5019602;28;20113;-74
2023/03/04 01:00:26;;;;;;;64.90;32.88;;;7.00;59.90;;;;;;5018347;28;20084;-74
2023/03/04 01:02:51;;;;;;;63.10;33.58;;;7.00;59.30;;;;;;5022924;28;20029;-74
2023/03/04 01:05:18;;;;;;;60.65;29.40;;;7.00;59.30;;;;;;5023634;28;20018;-74
2023/03/04 01:07:44;;;;;;;67.40;33.05;;;6.90;59.20;;;;;;5023827;28;20032;-74
2023/03/04 01:10:11;;;;;;;62.03;32.97;;;6.90;59.40;;;;;;5023102;28;20022;-74
2023/03/04 01:12:39;;;;;;;66.15;33.03;;;6.90;59.40;;;;;;5022739;28;20054;-74
2023/03/04 01:15:05;;;;;;;63.97;32.28;;;6.80;59.50;;;;;;5020966;28;20026;-74
2023/03/04 01:17:31;;;;;;;61.78;30.65;;;6.80;59.50;;;;;;5021963;28;20101;-73
2023/03/04 01:19:56;;;;;;;64.28;33.65;;;6.80;59.40;;;;;;5021909;28;20100;-74
2023/03/04 01:22:22;;;;;;;67.90;33.78;;;6.80;59.60;;;;;;5023293;28;20378;-74
2023/03/04 01:24:48;;;;;;;66.82;33.45;;;6.80;59.70;;;;;;5021545;28;20412;-74
2023/03/04 01:27:14;;;;;;;59.80;30.52;;;6.70;59.70;;;;;;5040000;28;20041;-74
2023/03/04 01:29:40;;;;;;;61.63;30.55;;;6.70;59.70;;;;;;5037706;28;20501;-74
2023/03/04 01:32:06;;;;;;;58.70;31.20;;;6.70;59.70;;;;;;5024832;28;20098;-74
2023/03/04 01:34:31;;;;;;;55.50;30.02;;;6.70;59.80;;;;;;5041619;28;20393;-74
2023/03/04 01:36:57;;;;;;;61.13;31.52;;;6.70;59.70;;;;;;5041597;28;20021;-74
2023/03/04 01:39:23;;;;;;;62.63;31.70;;;6.70;59.70;;;;;;5042736;28;20109;-74
2023/03/04 01:41:49;;;;;;;61.33;31.50;;;6.70;59.80;;;;;;5041137;28;20017;-74
2023/03/04 01:44:14;;;;;;;61.45;31.35;;;6.70;59.80;;;;;;5041736;28;20017;-74
2023/03/04 01:46:46;;;;;;;57.45;29.90;;;6.80;59.90;;;;;;5042699;28;20433;-74
2023/03/04 01:49:14;;;;;;;65.32;31.88;;;6.80;59.90;;;;;;5039619;28;20052;-74
2023/03/04 01:51:43;;;;;;;65.70;31.95;;;6.80;59.90;;;;;;5041028;28;20017;-74
2023/03/04 01:54:09;;;;;;;68.30;31.83;;;6.80;59.90;;;;;;5038717;28;20088;-74
2023/03/04 01:56:37;;;;;;;67.00;33.40;;;6.80;59.90;;;;;;5041650;28;20474;-73
2023/03/04 01:59:13;;;;;;;69.82;33.88;;;6.80;59.90;;;;;;5042199;28;20103;-74
2023/03/04 02:01:40;;;;;;;65.68;33.55;;;6.80;59.90;;;;;;5042219;28;20097;-74
2023/03/04 02:04:06;;;;;;;63.10;32.17;;;6.80;59.90;;;;;;5040426;28;20080;-74
2023/03/04 02:06:34;;;;;;;73.82;34.22;;;6.80;59.90;;;;;;5044705;28;20017;-74
2023/03/04 02:09:00;;;;;;;64.70;32.45;;;6.80;59.90;;;;;;5042253;28;20024;-74
2023/03/04 02:11:26;;;;;;;59.33;32.28;;;6.80;59.90;;;;;;5040621;28;20033;-74
2023/03/04 02:13:52;;;;;;;58.03;31.38;;;6.80;59.90;;;;;;5040625;28;20083;-74
2023/03/04 02:16:18;;;;;;;63.72;33.05;;;6.80;60.00;;;;;;5040556;28;20383;-74
2023/03/04 02:18:44;;;;;;;65.45;33.22;;;6.80;59.90;;;;;;5022489;28;20029;-74
2023/03/04 02:21:17;;;;;;;69.03;34.25;;;6.80;59.90;;;;;;5042117;28;20021;-74
2023/03/04 02:23:52;;;;;;;74.07;34.95;;;6.80;60.00;;;;;;5042748;28;20023;-73
2023/03/04 02:26:23;;;;;;;66.15;33.92;;;6.80;60.00;;;;;;5045275;28;20141;-74
2023/03/04 02:28:51;;;;;;;62.03;31.50;;;6.80;60.00;;;;;;5031237;28;20052;-74
2023/03/04 02:31:40;;;;;;;59.35;31.45;;;6.80;60.00;;;;;;5044480;28;20374;-74
2023/03/04 02:34:12;;;;;;;66.03;32.13;;;6.70;60.00;;;;;;5045798;28;20543;-74
2023/03/04 02:36:39;;;;;;;66.63;32.38;;;6.70;60.00;;;;;;5045579;28;20029;-74
2023/03/04 02:39:19;;;;;;;65.43;32.28;;;6.70;60.00;;;;;;5025924;28;20029;-74
2023/03/04 02:41:49;;;;;;;59.75;31.10;;;6.70;60.00;;;;;;5043514;28;20056;-74
2023/03/04 02:44:24;;;;;;;61.08;32.88;;;6.70;60.00;;;;;;5044842;28;20037;-74
2023/03/04 02:46:51;;;;;;;56.97;29.92;;;6.70;60.00;;;;;;5043656;28;20021;-74
2023/03/04 02:49:17;;;;;;;59.45;30.75;;;6.70;60.10;;;;;;5045087;28;20029;-74
2023/03/04 02:51:44;;;;;;;60.95;31.02;;;6.60;60.00;;;;;;5039498;28;20377;-71
2023/03/04 02:54:21;;;;;;;64.90;30.48;;;6.60;60.00;;;;;;5039000;28;20027;-73
2023/03/04 02:56:50;;;;;;;57.85;29.75;;;6.60;60.90;;;;;;5041583;28;20024;-73
2023/03/04 02:59:16;;;;;;;57.30;30.90;;;6.60;60.10;;;;;;5043946;28;20025;-74
2023/03/04 03:01:42;;;;;;;59.63;29.83;;;6.60;60.20;;;;;;5042232;28;20497;-71
2023/03/04 03:04:07;;;;;;;58.38;30.90;;;6.60;60.10;;;;;;5041771;28;20025;-72
2023/03/04 03:06:34;;;;;;;55.00;30.15;;;6.60;60.20;;;;;;5043144;28;20428;-73
2023/03/04 03:08:59;;;;;;;59.25;29.63;;;6.60;60.20;;;;;;5042977;28;20423;-71
2023/03/04 03:11:25;;;;;;;61.35;30.15;;;6.60;60.20;;;;;;5041188;28;20060;-73
2023/03/04 03:13:51;;;;;;;61.97;30.88;;;6.60;60.20;;;;;;5040245;28;20029;-73
2023/03/04 03:16:16;;;;;;;61.92;31.58;;;6.60;60.30;;;;;;5042779;28;20030;-74
2023/03/04 03:18:42;;;;;;;62.13;30.90;;;6.60;60.30;;;;;;5042181;28;20033;-73
2023/03/04 03:21:08;;;;;;;53.67;28.77;;;6.60;60.20;;;;;;5043971;28;20021;-74
2023/03/04 03:23:34;;;;;;;57.17;29.88;;;6.60;60.20;;;;;;5043849;28;20015;-71
2023/03/04 03:26:00;;;;;;;61.78;31.35;;;6.60;60.20;;;;;;5041912;28;20044;-73
2023/03/04 03:28:27;;;;;;;63.95;31.88;;;6.50;60.20;;;;;;5044278;28;20445;-70
2023/03/04 03:30:53;;;;;;;56.38;30.40;;;6.50;60.20;;;;;;5019008;28;20033;-73
2023/03/04 03:33:18;;;;;;;66.20;33.35;;;6.60;60.20;;;;;;5036150;28;20061;-72
2023/03/04 03:35:44;;;;;;;59.35;30.13;;;6.50;60.20;;;;;;5036898;28;20032;-71
2023/03/04 03:38:10;;;;;;;61.67;30.42;;;6.50;60.10;;;;;;5045299;28;20101;-71
2023/03/04 03:40:36;;;;;;;54.80;29.48;;;6.50;60.10;;;;;;5044993;28;20075;-74
2023/03/04 03:43:02;;;;;;;64.95;31.75;;;6.50;60.10;;;;;;5044240;28;20351;-72
2023/03/04 03:45:28;;;;;;;61.33;30.98;;;6.50;60.10;;;;;;5021473;28;20017;-73
2023/03/04 03:47:53;;;;;;;59.88;29.48;;;6.50;60.10;;;;;;5039357;28;20083;-72
2023/03/04 03:50:19;;;;;;;59.25;31.13;;;6.50;60.10;;;;;;5039695;28;20091;-72
2023/03/04 03:52:45;;;;;;;58.55;29.45;;;6.50;60.10;;;;;;5041830;28;20059;-73
2023/03/04 03:55:11;;;;;;;58.72;28.77;;;6.50;60.10;;;;;;5044345;28;20071;-75
2023/03/04 03:57:36;;;;;;;61.50;31.25;;;6.50;60.10;;;;;;5025418;28;20032;-71
2023/03/04 04:00:04;;;;;;;57.92;30.50;;;6.50;60.10;;;;;;5041186;28;20041;-73
2023/03/04 04:02:30;;;;;;;55.97;29.77;;;6.40;60.10;;;;;;5033328;28;20024;-71
2023/03/04 04:04:56;;;;;;;58.33;30.00;;;6.40;60.10;;;;;;5035774;28;20021;-70
2023/03/04 04:07:21;;;;;;;74.95;33.33;;;6.40;60.10;;;;;;5042038;28;20151;-71
2023/03/04 04:09:47;;;;;;;71.80;36.78;;;6.40;60.30;;;;;;5038207;28;20036;-71
2023/03/04 04:12:15;;;;;;;69.22;34.42;;;6.40;60.40;;;;;;5039393;28;20743;-71
2023/03/04 04:14:42;;;;;;;83.30;37.35;;;6.30;60.40;;;;;;5039569;28;20029;-71
2023/03/04 04:17:08;;;;;;;76.97;37.72;;;6.30;60.50;;;;;;5040583;28;20024;-72
2023/03/04 04:19:34;;;;;;;63.63;34.42;;;6.30;60.70;;;;;;5038017;28;20132;-72
2023/03/04 04:22:01;;;;;;;68.50;34.95;;;6.40;60.90;;;;;;5040309;28;20096;-71
2023/03/04 04:24:27;;;;;;;74.68;38.80;;;6.30;60.80;;;;;;5038079;28;20332;-72
2023/03/04 04:26:52;;;;;;;74.60;36.92;;;6.30;60.90;;;;;;5039760;28;20048;-71
2023/03/04 04:29:18;;;;;;;71.57;37.17;;;6.30;61.00;;;;;;5012859;28;20025;-72
2023/03/04 04:31:44;;;;;;;78.90;37.85;;;6.30;61.20;;;;;;5037812;28;20036;-72
2023/03/04 04:34:10;;;;;;;79.47;40.33;;;6.30;61.30;;;;;;5036423;28;20071;-73
2023/03/04 04:36:36;;;;;;;71.50;37.05;;;6.30;61.40;;;;;;5039398;28;20103;-73
2023/03/04 04:39:03;;;;;;;75.00;38.90;;;6.30;61.50;;;;;;5040226;28;20492;-73
2023/03/04 04:41:37;;;;;;;83.38;38.95;;;6.30;61.50;;;;;;5038149;28;20017;-74
2023/03/04 04:44:04;;;;;;;76.80;36.88;;;6.30;61.70;;;;;;5040976;28;20124;-71
2023/03/04 04:46:29;;;;;;;73.93;37.25;;;6.30;61.70;;;;;;5042426;28;20025;-71
2023/03/04 04:48:55;;;;;;;80.50;39.58;;;6.30;61.70;;;;;;5041002;28;20091;-71
2023/03/04 04:51:21;;;;;;;82.85;37.78;;;6.30;61.80;;;;;;5040982;28;20026;-72
2023/03/04 04:53:47;;;;;;;78.38;38.58;;;6.20;61.80;;;;;;5042469;28;20466;-72
2023/03/04 04:56:16;;;;;;;74.00;35.72;;;6.20;61.80;;;;;;5040893;28;20021;-72
2023/03/04 04:58:45;;;;;;;71.68;35.83;;;6.20;61.80;;;;;;5040121;28;20116;-71
2023/03/04 05:01:11;;;;;;;74.38;37.40;;;6.20;61.80;;;;;;5042343;28;20017;-74
2023/03/04 05:03:37;;;;;;;70.30;35.65;;;6.10;61.80;;;;;;5044155;28;20075;-73
2023/03/04 05:06:05;;;;;;;70.57;35.22;;;6.10;61.80;;;;;;5040947;28;20371;-73
2023/03/04 05:08:31;;;;;;;76.75;36.17;;;6.10;61.80;;;;;;5042340;28;20100;-73
2023/03/04 05:10:57;;;;;;;75.22;36.33;;;6.00;61.70;;;;;;5040220;28;20100;-73
2023/03/04 05:13:23;;;;;;;71.43;34.78;;;6.00;61.70;;;;;;5040067;28;20021;-72
2023/03/04 05:15:52;;;;;;;86.07;35.85;;;6.00;61.80;;;;;;5038640;28;20112;-71
2023/03/04 05:18:18;;;;;;;64.53;34.53;;;6.00;61.80;;;;;;5041839;28;20140;-72
2023/03/04 05:20:44;;;;;;;75.72;36.38;;;6.00;61.80;;;;;;5042989;28;20024;-72
2023/03/04 05:23:10;;;;;;;65.75;34.03;;;5.90;61.80;;;;;;5041410;28;20026;-72
2023/03/04 05:25:36;;;;;;;72.95;35.35;;;5.90;61.80;;;;;;5041735;28;20028;-72
2023/03/04 05:28:11;;;;;;;75.43;36.92;;;5.90;62.00;;;;;;5039994;28;20029;-72
2023/03/04 05:30:38;;;;;;;78.78;38.67;;;5.80;62.00;;;;;;5040557;28;20043;-72
2023/03/04 05:33:04;;;;;;;71.82;36.88;;;5.80;62.10;;;;;;5040758;28;20421;-72
2023/03/04 05:35:30;;;;;;;75.45;37.50;;;5.80;62.20;;;;;;5042736;28;20028;-72
2023/03/04 05:37:55;;;;;;;74.97;37.13;;;5.80;62.40;;;;;;5041919;28;20021;-72
2023/03/04 05:40:23;;;;;;;71.55;36.88;;;5.80;62.50;;;;;;5041394;28;20024;-72
2023/03/04 05:42:48;;;;;;;71.40;35.90;;;5.80;62.60;;;;;;5038535;28;20014;-73
2023/03/04 05:45:14;;;;;;;75.90;36.50;;;5.80;62.60;;;;;;5042325;28;20024;-72
2023/03/04 05:47:40;;;;;;;76.60;38.20;;;5.80;62.70;;;;;;5042782;28;20497;-71
2023/03/04 05:50:06;;;;;;;73.05;37.83;;;5.70;62.60;;;;;;5040787;28;20022;-73
2023/03/04 05:52:32;;;;;;;82.40;38.75;;;5.80;62.80;;;;;;5042385;28;20021;-72
2023/03/04 05:54:58;;;;;;;71.75;37.33;;;5.80;62.70;;;;;;5042106;28;20017;-72
2023/03/04 05:57:24;;;;;;;72.05;36.50;;;5.70;62.60;;;;;;5040641;28;20052;-73
2023/03/04 05:59:49;;;;;;;73.70;37.22;;;5.80;62.70;;;;;;5037377;28;20101;-72
2023/03/04 06:02:15;;;;;;;76.57;37.72;;;5.80;62.70;;;;;;5043986;28;20474;-72
2023/03/04 06:04:41;;;;;;;77.80;39.63;;;5.80;62.70;;;;;;5028391;28;20084;-72
2023/03/04 06:07:07;;;;;;;77.28;37.97;;;5.80;62.70;;;;;;5029029;28;20021;-72
2023/03/04 06:09:32;;;;;;;85.80;39.47;;;5.80;62.80;;;;;;5045178;28;20021;-72
2023/03/04 06:11:58;;;;;;;70.30;36.10;;;5.80;62.80;;;;;;5027373;28;20363;-72
2023/03/04 06:14:24;;;;;;;76.82;39.53;;;5.80;62.80;;;;;;5038986;28;20561;-73
2023/03/04 06:16:50;;;;;;;79.72;40.15;;;5.80;62.90;;;;;;5040942;28;20112;-72
2023/03/04 06:19:15;;;;;;;84.57;43.95;;;5.80;63.10;;;;;;5028531;28;20029;-73
2023/03/04 06:21:41;;;;;;;84.25;41.13;;;5.90;63.50;;;;;;5046143;28;20022;-72
2023/03/04 06:24:07;;;;;;;84.47;42.60;;;5.80;63.60;;;;;;5043526;28;20067;-73
2023/03/04 06:26:34;;;;;;;84.45;42.50;;;5.90;63.70;;;;;;5032068;28;20442;-72
2023/03/04 06:29:00;;;;;;;89.05;43.05;;;5.90;63.80;;;;;;5024879;28;20359;-72
2023/03/04 06:31:25;;;;;;;82.32;42.60;;;5.90;63.90;;;;;;5026299;28;20131;-73
2023/03/04 06:33:51;;;;;;;88.15;43.58;;;5.90;64.10;;;;;;5024716;28;20022;-72
2023/03/04 06:36:17;;;;;;;96.60;46.50;;;6.00;64.20;;;;;;5024292;28;20470;-72
2023/03/04 06:38:43;;;;;;;97.18;45.25;;;6.00;64.40;;;;;;5021047;28;20067;-72
2023/03/04 06:41:11;;;;;;;82.50;41.53;;;6.00;64.40;;;;;;5018254;28;20026;-73
2023/03/04 06:43:37;;;;;;;88.85;45.03;;;6.00;64.60;;;;;;5025486;28;20148;-72
2023/03/04 06:46:04;;;;;;;84.78;40.47;;;6.00;64.60;;;;;;5025578;28;20022;-72
2023/03/04 06:48:30;;;;;;;89.22;41.33;;;6.00;64.70;;;;;;5024369;28;20026;-72
2023/03/04 06:50:56;;;;;;;89.55;44.35;;;6.10;64.70;;;;;;5023576;28;20028;-73
2023/03/04 06:53:21;;;;;;;87.15;43.97;;;6.10;64.60;;;;;;5016753;28;20061;-73
2023/03/04 06:55:48;;;;;;;80.82;41.63;;;6.20;64.50;;;;;;5016830;28;20018;-73
2023/03/04 06:58:16;;;;;;;97.38;44.08;;;6.20;64.40;;;;;;5014531;28;20026;-72
2023/03/04 07:00:43;;;;;;;89.75;45.00;;;6.30;64.50;;;;;;5015031;28;20022;-71
2023/03/04 07:03:11;;;;;;;84.57;44.40;;;6.30;64.50;;;;;;5015173;28;20026;-73
2023/03/04 07:05:37;;;;;;;95.30;43.58;;;6.30;64.60;;;;;;5012818;28;20097;-72
2023/03/04 07:08:03;;;;;;;85.75;43.60;;;6.40;64.60;;;;;;4997700;28;20104;-73
2023/03/04 07:10:29;;;;;;;89.93;42.78;;;6.40;64.50;;;;;;5014689;28;20026;-73
2023/03/04 07:12:55;;;;;;;85.88;42.33;;;6.50;64.50;;;;;;5013996;28;20085;-72
2023/03/04 07:15:21;;;;;;;77.40;41.17;;;6.50;65.10;;;;;;5015096;28;20478;-73
2023/03/04 07:17:47;;;;;;;86.82;44.20;;;6.60;64.30;;;;;;5015464;28;20033;-74
2023/03/04 07:20:12;;;;;;;84.60;43.22;;;6.60;64.10;;;;;;5014230;28;20084;-73
2023/03/04 07:22:38;;;;;;;83.47;43.30;;;6.70;64.10;;;;;;4996476;28;20030;-73
2023/03/04 07:25:04;;;;;;;81.32;41.95;;;6.70;64.00;;;;;;5010946;28;20056;-73
2023/03/04 07:27:30;;;;;;;83.63;42.47;;;6.70;64.00;;;;;;5032543;28;20083;-73
2023/03/04 07:29:56;;;;;;;80.05;41.47;;;6.80;64.10;;;;;;5034063;28;20029;-73
2023/03/04 07:32:22;;;;;;;80.38;41.85;;;6.80;64.00;;;;;;5016742;28;20036;-72
2023/03/04 07:34:48;;;;;;;86.10;43.08;;;6.90;63.90;;;;;;5016808;28;20017;-72
2023/03/04 07:37:13;;;;;;;87.70;44.90;;;6.90;63.80;;;;;;5034026;28;20360;-74
2023/03/04 07:39:39;;;;;;;84.72;41.50;;;7.00;63.70;;;;;;5033468;28;20461;-73
2023/03/04 07:42:05;;;;;;;90.65;46.40;;;7.00;63.60;;;;;;5033590;28;20030;-73
2023/03/04 07:44:31;;;;;;;80.20;41.33;;;7.00;63.50;;;;;;5034049;28;20025;-74
2023/03/04 07:46:57;;;;;;;88.32;43.92;;;7.10;63.40;;;;;;5033915;28;20022;-74
2023/03/04 07:49:23;;;;;;;88.35;44.45;;;7.10;63.30;;;;;;5016435;28;20033;-73
2023/03/04 07:51:48;;;;;;;92.78;44.60;;;7.20;63.20;;;;;;5033694;28;20028;-73
2023/03/04 07:54:14;;;;;;;83.15;44.28;;;7.20;63.10;;;;;;5033748;28;20029;-74
2023/03/04 07:56:40;;;;;;;87.18;44.90;;;7.30;63.10;;;;;;5016281;28;20044;-73
2023/03/04 07:59:06;;;;;;;94.78;45.90;;;7.30;62.80;;;;;;5033846;28;20025;-73
2023/03/04 08:01:35;;;;;;;83.80;42.78;;;7.30;62.70;;;;;;5034241;28;20029;-73
2023/03/04 08:04:01;;;;;;;82.25;41.67;;;7.40;62.80;;;;;;5033510;28;20017;-72
2023/03/04 08:06:27;;;;;;;76.40;39.92;;;7.40;62.70;;;;;;5033652;28;20028;-72
2023/03/04 08:08:59;;;;;;;87.25;41.75;;;7.50;62.40;;;;;;5033755;28;20032;-73
2023/03/04 08:11:26;;;;;;;84.35;41.22;;;7.50;62.10;;;;;;5031357;28;20025;-73
2023/03/04 08:13:53;;;;;;;79.35;42.20;;;7.60;62.00;;;;;;5033524;28;20079;-73
2023/03/04 08:16:21;;;;;;;87.03;43.45;;;7.60;61.90;;;;;;5033415;28;20029;-73
2023/03/04 08:18:50;;;;;;;77.38;39.35;;;7.70;61.90;;;;;;5033222;28;20021;-73
2023/03/04 08:21:18;;;;;;;82.68;41.63;;;7.70;61.50;;;;;;5015576;28;20364;-73
2023/03/04 08:23:44;;;;;;;71.30;36.67;;;7.80;61.10;;;;;;5032363;28;20462;-73
2023/03/04 08:26:19;;;;;;;72.70;38.00;;;7.80;60.90;;;;;;5029929;28;20050;-73
2023/03/04 08:28:46;;;;;;;65.63;35.10;;;7.90;60.50;;;;;;5033275;28;20021;-73
2023/03/04 08:31:13;;;;;;;66.68;33.50;;;7.90;60.00;;;;;;5033030;28;20044;-72
2023/03/04 08:33:39;;;;;;;63.95;32.47;;;8.00;59.80;;;;;;5032960;28;20017;-73
2023/03/04 08:36:06;;;;;;;64.47;31.17;;;8.00;59.30;;;;;;5033080;28;20076;-72
2023/03/04 08:38:32;;;;;;;60.42;30.85;;;8.00;58.80;;;;;;5032992;28;20036;-72
2023/03/04 08:40:58;;;;;;;54.75;30.40;;;8.10;58.40;;;;;;5032804;28;20017;-72
2023/03/04 08:43:25;;;;;;;56.00;28.20;;;8.10;57.90;;;;;;5033018;28;20018;-72
2023/03/04 08:45:53;;;;;;;55.30;27.50;;;8.10;57.50;;;;;;5032717;28;20025;-71
2023/03/04 08:48:20;;;;;;;48.42;27.15;;;8.10;57.50;;;;;;5032546;28;20018;-72
2023/03/04 08:50:46;;;;;;;58.33;27.88;;;8.20;57.50;;;;;;5032707;28;20026;-72
2023/03/04 08:53:13;;;;;;;49.88;27.65;;;8.20;57.20;;;;;;5032590;28;20026;-72
2023/03/04 08:55:40;;;;;;;92.07;31.40;;;8.30;57.20;;;;;;5014741;28;20382;-72
2023/03/04 08:58:06;;;;;;;44.58;25.33;;;8.40;57.50;;;;;;5032984;28;20387;-72
2023/03/04 09:00:34;;;;;;;49.78;27.63;;;8.40;57.00;;;;;;5032247;28;20072;-72
2023/03/04 09:03:00;;;;;;;50.65;27.80;;;8.50;56.90;;;;;;5031855;28;20028;-72
2023/03/04 09:05:25;;;;;;;47.63;25.10;;;8.60;56.80;;;;;;5014739;28;20025;-71
2023/03/04 09:07:53;;;;;;;47.63;26.25;;;8.60;56.70;;;;;;5014754;28;20029;-72
2023/03/04 09:10:19;;;;;;;46.15;24.48;;;8.70;56.50;;;;;;5032460;28;20048;-72
2023/03/04 09:12:45;;;;;;;40.53;22.42;;;8.80;56.10;;;;;;5032263;28;20052;-72
2023/03/04 09:15:11;;;;;;;40.53;22.42;;;8.80;56.10;;;;;;5031753;28;20018;-72
2023/03/04 09:17:38;;;;;;;42.90;23.30;;;8.90;55.90;;;;;;5031967;28;20036;-72
2023/03/04 09:20:05;;;;;;;39.60;22.17;;;9.00;55.70;;;;;;5032077;28;20443;-72
2023/03/04 09:22:31;;;;;;;36.03;21.23;;;9.00;55.50;;;;;;5032049;28;20092;-72
2023/03/04 09:24:57;;;;;;;39.95;21.42;;;9.10;55.20;;;;;;5011789;28;20057;-72
2023/03/04 09:27:23;;;;;;;40.47;21.92;;;9.10;55.00;;;;;;5023494;28;20443;-72
2023/03/04 09:29:49;;;;;;;38.58;20.02;;;9.20;55.00;;;;;;5023522;28;20348;-72
2023/03/04 09:32:15;;;;;;;44.30;21.40;;;9.30;54.60;;;;;;5023938;28;20424;-73
2023/03/04 09:34:41;;;;;;;37.03;19.63;;;9.40;54.50;;;;;;5022428;28;20049;-72
2023/03/04 09:37:06;;;;;;;39.08;18.92;;;9.40;53.90;;;;;;5005186;28;20048;-72
2023/03/04 09:39:32;;;;;;;36.15;19.80;;;9.50;53.80;;;;;;5012990;28;20379;-72
2023/03/04 09:41:59;;;;;;;40.65;21.58;;;9.50;53.80;;;;;;4997267;28;20034;-72
2023/03/04 09:44:51;;;;;;;43.30;21.13;;;9.60;53.80;;;;;;5001250;28;20018;-72
2023/03/04 09:47:20;;;;;;;42.30;22.27;;;9.70;53.90;;;;;;5011690;28;20494;-72
2023/03/04 09:50:00;;;;;;;38.58;22.45;;;9.70;53.60;;;;;;5011867;28;20492;-73
2023/03/04 09:52:37;;;;;;;38.25;21.15;;;9.80;53.20;;;;;;5013220;28;20554;-72
2023/03/04 09:55:10;;;;;;;49.20;21.98;;;9.80;53.10;;;;;;5012963;28;20041;-72
2023/03/04 09:57:48;;;;;;;51.55;21.38;;;9.80;52.60;;;;;;5013280;28;20476;-72
2023/03/04 10:00:31;;;;;;;39.22;20.27;;;9.80;52.10;;;;;;4995586;28;20034;-72
2023/03/04 10:03:09;;;;;;;42.00;20.57;;;9.90;52.00;;;;;;5013269;28;20033;-73
2023/03/04 10:05:55;;;;;;;36.33;18.38;;;9.90;52.10;;;;;;5011944;28;20026;-72
2023/03/04 10:08:53;;;;;;;36.75;19.75;;;10.00;52.40;;;;;;5011941;28;20487;-72
2023/03/04 10:11:36;;;;;;;30.80;17.55;;;10.00;51.90;;;;;;5011247;28;20562;-72
2023/03/04 10:14:20;;;;;;;33.45;18.27;;;10.10;52.30;;;;;;5011898;28;20022;-73
2023/03/04 10:16:55;;;;;;;31.63;18.35;;;10.20;51.70;;;;;;5013127;28;20411;-72
2023/03/04 10:19:37;;;;;;;29.42;17.02;;;10.20;51.30;;;;;;5012995;28;20473;-72
2023/03/04 10:22:32;;;;;;;29.83;16.58;;;10.30;51.60;;;;;;5012740;28;20029;-72
2023/03/04 10:25:13;;;;;;;29.38;16.48;;;10.30;51.40;;;;;;5012934;28;20030;-73
2023/03/04 10:27:40;;;;;;;30.33;15.75;;;10.40;51.40;;;;;;5013593;28;20104;-73
2023/03/04 10:30:18;;;;;;;35.92;17.27;;;10.50;51.50;;;;;;5012050;28;20022;-72
2023/03/04 10:32:46;;;;;;;29.52;15.40;;;10.50;50.60;;;;;;4995270;28;20034;-73
2023/03/04 10:35:12;;;;;;;28.13;15.27;;;10.60;50.70;;;;;;5012780;28;20022;-72
2023/03/04 10:37:48;;;;;;;29.88;16.83;;;10.60;50.40;;;;;;5012910;28;20040;-72
2023/03/04 10:40:22;;;;;;;29.13;14.82;;;10.70;50.00;;;;;;5021954;28;20022;-71
2023/03/04 10:42:49;;;;;;;26.58;15.02;;;10.70;49.80;;;;;;5019884;28;20017;-72
2023/03/04 10:45:24;;;;;;;26.73;13.65;;;10.80;49.80;;;;;;5022437;28;20049;-72
2023/03/04 10:47:55;;;;;;;25.63;14.10;;;10.90;49.90;;;;;;5022501;28;20009;-71
2023/03/04 10:50:27;;;;;;;29.25;14.23;;;10.90;49.60;;;;;;5021570;28;20037;-71
2023/03/04 10:52:54;;;;;;;23.85;12.90;;;11.00;49.40;;;;;;5025813;28;20327;-71
2023/03/04 10:55:41;;;;;;;26.20;14.57;;;11.00;49.20;;;;;;5023945;28;20157;-72
2023/03/04 10:58:14;;;;;;;23.35;13.63;;;11.00;49.10;;;;;;5022984;28;20376;-72
2023/03/04 11:00:40;;;;;;;27.45;15.25;;;11.10;49.40;;;;;;5022452;28;20466;-72
2023/03/04 11:03:28;;;;;;;30.95;16.05;;;11.20;49.10;;;;;;5025342;28;20490;-71
2023/03/04 11:06:18;;;;;;;23.65;12.98;;;11.20;48.30;;;;;;5025949;28;20081;-72
2023/03/04 11:08:51;;;;;;;32.20;14.75;;;11.30;48.90;;;;;;5021763;28;20021;-71
2023/03/04 11:11:36;;;;;;;27.95;14.50;;;11.30;48.10;;;;;;5025872;28;20021;-72
2023/03/04 11:14:44;;;;;;;29.17;15.77;;;11.30;48.00;;;;;;5022125;28;20029;-71
2023/03/04 11:17:42;;;;;;;32.13;16.88;;;11.30;47.20;;;;;;4960281;28;20027;-71
2023/03/04 11:20:34;;;;;;;33.25;17.60;;;11.40;48.10;;;;;;4944908;28;20062;-71
2023/03/04 11:23:32;;;;;;;45.17;22.02;;;11.50;48.10;;;;;;4962470;28;20036;-72
2023/03/04 11:26:09;;;;;;;35.78;18.17;;;11.50;47.90;;;;;;4959658;28;20047;-71
2023/03/04 11:29:07;;;;;;;31.67;17.05;;;11.60;47.70;;;;;;4964534;28;20064;-73
2023/03/04 11:31:39;;;;;;;33.95;17.67;;;11.60;47.70;;;;;;4962523;28;20529;-73
2023/03/04 11:34:23;;;;;;;66.15;22.75;;;11.60;47.00;;;;;;4960126;28;20385;-73
2023/03/04 11:36:54;;;;;;;;;;;11.60;46.90;;;;;;4961707;28;20050;-73
2023/03/04 11:39:38;;;;;;;37.20;17.75;;;11.70;48.50;;;;;;4964219;28;19909;-72
2023/03/04 11:42:15;;;;;;;60.08;33.00;;;11.80;47.10;;;;;;4958287;28;20094;-72
2023/03/04 11:44:41;;;;;;;66.72;32.95;;;11.80;47.30;;;;;;4964008;28;20037;-73
2023/03/04 11:47:27;;;;;;;36.80;19.60;;;11.80;47.30;;;;;;4969870;28;20033;-73
2023/03/04 11:50:11;;;;;;;39.30;18.73;;;11.80;46.60;;;;;;5022097;28;20034;-73
2023/03/04 11:52:43;;;;;;;38.13;19.33;;;11.80;46.90;;;;;;5019667;28;20560;-72
2023/03/04 11:55:55;;;;;;;32.95;18.08;;;11.80;46.60;;;;;;5024673;28;20045;-73
2023/03/04 11:58:51;;;;;;;36.60;19.48;;;11.80;46.60;;;;;;5001475;28;20038;-73
2023/03/04 12:01:50;;;;;;;32.42;17.15;;;11.90;46.30;;;;;;5018111;28;20395;-73
2023/03/04 12:04:24;;;;;;;38.20;19.70;;;11.90;46.50;;;;;;5019363;28;20113;-73
2023/03/04 12:07:05;;;;;;;37.72;19.42;;;11.90;46.30;;;;;;5013376;28;20018;-73
2023/03/04 12:09:48;;;;;;;36.63;18.02;;;11.90;46.20;;;;;;5022620;28;20026;-72
2023/03/04 12:12:47;;;;;;;31.97;18.70;;;11.90;46.10;;;;;;5020648;28;20021;-72
2023/03/04 12:15:37;;;;;;;27.35;16.35;;;11.80;45.90;;;;;;5019765;28;20502;-73
2023/03/04 12:18:35;;;;;;;32.13;17.30;;;11.90;46.60;;;;;;5016609;28;20061;-72
2023/03/04 12:21:25;;;;;;;32.60;18.13;;;11.90;46.10;;;;;;5023551;28;20025;-73
2023/03/04 12:23:57;;;;;;;35.60;17.45;;;11.90;46.30;;;;;;5015515;28;20030;-73
2023/03/04 12:26:40;;;;;;;31.45;17.27;;;12.00;45.90;;;;;;5028740;28;20045;-72
2023/03/04 12:29:36;;;;;;;37.38;17.15;;;12.00;45.70;;;;;;5032360;28;20462;-72
2023/03/04 12:32:37;;;;;;;30.42;16.27;;;12.00;45.90;;;;;;5043257;28;20367;-73
2023/03/04 12:35:35;;;;;;;30.50;17.58;;;12.00;45.30;;;;;;5002763;28;20042;-73
2023/03/04 12:38:43;;;;;;;30.77;16.77;;;12.00;45.20;;;;;;5002735;28;20033;-72
2023/03/04 12:41:32;;;;;;;24.88;14.73;;;12.00;44.60;;;;;;5007167;28;20025;-73
2023/03/04 12:44:17;;;;;;;26.33;13.73;;;12.00;45.00;;;;;;5009991;28;20080;-73
2023/03/04 12:47:11;;;;;;;29.27;14.77;;;12.10;45.90;;;;;;5008649;28;20042;-73
2023/03/04 12:49:58;;;;;;;26.58;14.50;;;12.00;44.10;;;;;;5005828;28;20029;-73
2023/03/04 12:52:55;;;;;;;23.70;12.35;;;12.00;44.10;;;;;;5006378;28;20046;-73